Airfield :
LOGIN :

Register | Disclaimer

   EN    FR    IT 

 










Legend :    VFR   Marginal VFR   IFR   Intensive IFR   Very Intensive IFR
Visi :
Ceiling :
>= 8 km
>= 3000ft
5 to 8 km
1000 to 3000 ft
1500m to 5 km
500 to 1000 ft
800 to 1500m
200 to 500 ft
< 800m
< 200 ft
Symbols :   Thunderstorms  Fog  Heavy snow  Heavy precipitations  Wind > 20 kt
SIGMETs :     Misc.  Thunderstorms  Icing  Turbulence  Mountain Waves  Volcanic Ashes






- Airport Elevation : 70 ft
- IATA code : LEI


LEAM - Almeria

CURRENT METAR :
  • 041700Z 09012KT 050V150 CAVOK 32/17 Q1018

EXPIRED METARs :
  • 041630Z 10011KT 050V140 CAVOK 33/17 Q1018
  • 041600Z 10012KT 070V140 CAVOK 33/17 Q1018
  • 041530Z 11010KT 070V160 CAVOK 34/16 Q1018
  • 041500Z 11011KT 080V150 CAVOK 33/16 Q1018
  • 041430Z 11011KT 070V150 CAVOK 34/17 Q1018

TAF TAF LEAM
Valid from the 04 at 15:00 until the 05 at 15:00 UTC


041400Z 0415/0515 11013KT CAVOK TX32/0513Z TN23/0504Z
TEMPO 0500/0508 01003KT



MET'MAP, your aeronautical weather chart ! - Copyright ORBIFLY December 2007 - Disclaimer

ORBIFLY MET'MAP TEAM :

Programming & Development : Alexandra Zaïnal
Concept & original design : Baudouin d'Aumeries
Assistance for programming : Marc-Olivier Méhu
Technical & hardware support : Manuel Goepfert

Contact : metmap@orbifly.com




SOURCES & CREDITS :

   NOAA